createdAt,value
2024-01-16T00:09:12.981Z,17.92
2024-01-16T00:18:23.944Z,19.60
2024-01-16T00:20:56.018Z,23.73
2024-01-16T00:23:34.220Z,23.55
2024-01-16T00:33:13.846Z,23.67
2024-01-16T00:35:46.203Z,25.23
2024-01-16T00:38:17.398Z,20.25
2024-01-16T00:40:48.033Z,21.45
2024-01-16T00:43:21.303Z,21.75
2024-01-16T00:45:53.383Z,21.85
2024-01-16T00:48:29.496Z,23.17
2024-01-16T00:51:06.431Z,20.15
2024-01-16T00:56:04.266Z,26.27
2024-01-16T00:58:39.088Z,21.15
2024-01-16T01:01:15.203Z,23.52
2024-01-16T01:04:07.033Z,24.90
2024-01-16T01:06:36.549Z,28.73
2024-01-16T01:09:04.246Z,20.77
2024-01-16T01:11:31.259Z,19.50
2024-01-16T01:14:07.125Z,19.80
2024-01-16T01:16:34.680Z,18.70
2024-01-16T01:19:05.381Z,20.67
2024-01-16T01:21:32.294Z,18.88
2024-01-16T01:23:59.096Z,18.02
2024-01-16T01:26:28.792Z,22.33
2024-01-16T01:28:56.168Z,20.48
2024-01-16T01:31:24.197Z,19.25
2024-01-16T01:33:51.238Z,21.20
2024-01-16T01:36:18.124Z,18.58
2024-01-16T01:38:45.108Z,19.15
2024-01-16T01:41:14.969Z,17.60
2024-01-16T01:43:41.956Z,16.88
2024-01-16T01:46:19.653Z,19.63
2024-01-16T01:48:55.013Z,18.35
2024-01-16T01:51:22.058Z,18.38
2024-01-16T01:53:51.459Z,17.98
2024-01-16T01:56:20.584Z,19.63
2024-01-16T01:58:50.940Z,18.60
2024-01-16T02:01:20.802Z,23.13
2024-01-16T02:03:48.624Z,20.48
2024-01-16T02:06:18.992Z,17.98
2024-01-16T02:08:46.874Z,18.77
2024-01-16T02:11:14.411Z,18.50
2024-01-16T02:13:46.719Z,19.05
2024-01-16T02:16:28.922Z,20.75
2024-01-16T02:18:57.155Z,18.90
2024-01-16T02:21:30.155Z,19.42
2024-01-16T02:23:58.118Z,21.33
2024-01-16T02:26:25.085Z,21.90
2024-01-16T02:28:54.041Z,20.77
2024-01-16T02:31:21.113Z,19.98
2024-01-16T02:33:48.045Z,18.95
2024-01-16T02:36:15.135Z,21.30
2024-01-16T02:38:45.374Z,19.17
2024-01-16T02:41:23.175Z,19.65
2024-01-16T02:43:52.531Z,20.45
2024-01-16T02:46:25.824Z,18.70
2024-01-16T02:48:59.001Z,22.00
2024-01-16T02:51:27.012Z,20.58
2024-01-16T02:54:04.657Z,20.48
2024-01-16T02:56:59.492Z,22.73
2024-01-16T02:59:33.438Z,19.10
2024-01-16T03:02:07.487Z,20.50
2024-01-16T03:04:44.176Z,19.33
2024-01-16T03:07:17.759Z,20.20
2024-01-16T03:09:51.216Z,19.23
2024-01-16T03:12:24.365Z,21.45
2024-01-16T03:15:02.627Z,20.42
2024-01-16T03:17:32.651Z,18.77
2024-01-16T03:20:05.889Z,22.33
2024-01-16T03:22:36.083Z,19.52
2024-01-16T03:25:04.482Z,19.90
2024-01-16T03:27:31.367Z,23.55
2024-01-16T03:29:58.325Z,22.17
2024-01-16T03:32:25.355Z,20.00
2024-01-16T03:34:52.407Z,18.77
2024-01-16T03:37:19.220Z,19.85
2024-01-16T03:39:46.361Z,20.23
2024-01-16T03:42:17.192Z,20.73
2024-01-16T03:44:44.793Z,20.38
2024-01-16T03:47:12.042Z,24.15
2024-01-16T03:49:39.147Z,21.67
2024-01-16T03:52:06.492Z,21.55
2024-01-16T03:54:33.348Z,19.73
2024-01-16T03:57:00.281Z,19.55
2024-01-16T03:59:27.334Z,18.85
2024-01-16T04:01:54.192Z,21.80
2024-01-16T04:04:21.555Z,19.00
2024-01-16T04:06:50.420Z,23.77
2024-01-16T04:09:17.456Z,27.73
2024-01-16T04:11:44.531Z,27.40
2024-01-16T04:14:11.410Z,30.70
2024-01-16T04:16:38.911Z,25.30
2024-01-16T04:19:08.711Z,29.85
2024-01-16T04:21:37.662Z,28.77
2024-01-16T04:24:04.759Z,23.35
2024-01-16T04:26:31.876Z,26.10
2024-01-16T04:29:01.409Z,20.27
2024-01-16T04:31:30.870Z,27.00
2024-01-16T04:33:57.760Z,27.98
2024-01-16T04:36:24.925Z,23.25
2024-01-16T04:38:51.815Z,20.05
2024-01-16T04:41:39.891Z,21.10
2024-01-16T04:44:06.889Z,18.00
2024-01-16T04:46:33.835Z,19.25
2024-01-16T04:49:01.869Z,21.65
2024-01-16T04:51:30.039Z,18.85
2024-01-16T04:53:57.491Z,22.48
2024-01-16T04:56:26.284Z,19.10
2024-01-16T04:58:54.610Z,17.48
2024-01-16T05:01:24.911Z,18.85
2024-01-16T05:03:52.102Z,19.40
2024-01-16T05:06:21.881Z,23.27
2024-01-16T05:08:49.916Z,24.60
2024-01-16T05:11:18.556Z,35.50
2024-01-16T05:13:47.269Z,42.55
2024-01-16T05:16:14.918Z,61.95
2024-01-16T05:18:44.518Z,56.58
2024-01-16T05:21:11.487Z,45.78
2024-01-16T05:23:42.413Z,36.17
2024-01-16T05:26:10.704Z,58.80
2024-01-16T05:28:41.425Z,50.78
2024-01-16T05:31:08.647Z,48.55
2024-01-16T05:33:37.229Z,43.15
2024-01-16T05:36:05.080Z,32.90
2024-01-16T05:38:31.933Z,34.83
2024-01-16T05:40:59.970Z,56.60
2024-01-16T05:43:29.918Z,60.38
2024-01-16T05:45:59.108Z,62.00
2024-01-16T05:48:26.176Z,79.75
2024-01-16T05:50:58.449Z,73.65
2024-01-16T05:53:27.824Z,81.82
2024-01-16T05:55:58.107Z,52.22
2024-01-16T05:58:29.101Z,31.33
2024-01-16T06:00:57.045Z,26.65
2024-01-16T06:03:24.271Z,26.08
2024-01-16T06:05:51.220Z,25.13
2024-01-16T06:08:18.397Z,25.92
2024-01-16T06:10:46.565Z,20.58
2024-01-16T06:13:14.207Z,22.17
2024-01-16T06:15:41.266Z,35.70
2024-01-16T06:18:10.583Z,41.83
2024-01-16T06:20:42.869Z,31.95
2024-01-16T06:23:10.119Z,23.33
2024-01-16T06:25:37.408Z,20.38
2024-01-16T06:28:07.147Z,20.77
2024-01-16T06:30:42.964Z,18.20
2024-01-16T06:33:14.976Z,26.27
2024-01-16T06:35:48.783Z,23.27
2024-01-16T06:38:27.846Z,26.23
2024-01-16T06:40:55.273Z,21.48
2024-01-16T06:43:23.677Z,27.55
2024-01-16T06:45:51.708Z,22.75
2024-01-16T06:48:19.654Z,24.23
2024-01-16T06:50:47.312Z,22.73
2024-01-16T06:53:45.384Z,21.85
2024-01-16T06:56:14.946Z,22.98
2024-01-16T06:58:44.885Z,25.30
2024-01-16T07:01:15.806Z,22.17
2024-01-16T07:03:49.681Z,20.38
2024-01-16T07:06:24.553Z,23.38
2024-01-16T07:08:52.569Z,23.15
2024-01-16T07:11:25.281Z,28.90
2024-01-16T07:13:53.580Z,20.60
2024-01-16T07:16:21.164Z,18.23
2024-01-16T07:18:51.613Z,17.15
2024-01-16T07:21:25.350Z,17.55
2024-01-16T07:24:03.163Z,19.35
2024-01-16T07:26:43.552Z,15.18
2024-01-16T07:29:17.785Z,14.27
2024-01-16T07:31:45.881Z,14.63
2024-01-16T07:34:34.116Z,15.43
2024-01-16T07:37:10.843Z,16.30
2024-01-16T07:39:43.545Z,14.73
2024-01-16T07:42:12.616Z,15.15
2024-01-16T07:44:47.831Z,15.68
2024-01-16T07:47:21.693Z,16.42
2024-01-16T07:49:52.662Z,15.40
2024-01-16T07:52:26.506Z,15.88
2024-01-16T07:55:00.325Z,15.55
2024-01-16T07:57:29.962Z,14.82
2024-01-16T08:00:05.627Z,13.95
2024-01-16T08:02:40.421Z,15.82
2024-01-16T08:05:19.072Z,16.00
2024-01-16T08:07:55.667Z,17.27
2024-01-16T08:10:43.573Z,15.05
2024-01-16T08:14:11.349Z,16.70
2024-01-16T08:16:47.657Z,14.80
2024-01-16T08:23:11.628Z,16.85
2024-01-16T08:25:40.026Z,14.10
2024-01-16T08:28:11.632Z,14.02
2024-01-16T08:30:38.758Z,14.13
2024-01-16T08:33:05.878Z,16.45
2024-01-16T08:35:33.144Z,16.08
2024-01-16T08:38:00.629Z,17.95
2024-01-16T08:40:29.040Z,15.98
2024-01-16T08:42:58.113Z,15.55
2024-01-16T08:45:27.313Z,13.95
2024-01-16T08:47:57.537Z,11.35
2024-01-16T08:50:27.148Z,13.57
2024-01-16T08:52:54.205Z,10.48
2024-01-16T08:55:35.375Z,12.30
2024-01-16T08:58:02.638Z,10.48
2024-01-16T09:00:29.667Z,10.45
2024-01-16T09:02:57.199Z,9.18
2024-01-16T09:05:27.053Z,8.93
2024-01-16T09:08:02.217Z,7.15
2024-01-16T09:10:31.006Z,7.53
2024-01-16T09:13:00.638Z,9.63
2024-01-16T09:15:33.518Z,8.23
2024-01-16T09:18:02.456Z,8.13
2024-01-16T09:23:44.938Z,8.75
2024-01-16T09:26:16.182Z,11.52
2024-01-16T09:29:15.781Z,10.93
2024-01-16T09:31:59.751Z,13.20
2024-01-16T09:34:34.331Z,10.45
2024-01-16T09:37:11.157Z,10.20
2024-01-16T09:39:47.156Z,12.52
2024-01-16T09:42:57.977Z,9.88
2024-01-16T09:45:33.515Z,9.55
2024-01-16T09:48:06.517Z,13.77
2024-01-16T09:50:42.207Z,9.88
2024-01-16T09:53:15.268Z,12.48
2024-01-16T09:55:43.652Z,10.50
2024-01-16T09:58:16.426Z,12.52
2024-01-16T10:00:52.120Z,8.95
2024-01-16T10:03:23.429Z,9.45
2024-01-16T10:05:55.959Z,11.30
2024-01-16T10:08:42.360Z,9.40
2024-01-16T10:11:41.053Z,9.50
2024-01-16T10:14:17.688Z,6.47
2024-01-16T10:17:35.898Z,9.60
2024-01-16T10:20:09.262Z,6.90
2024-01-16T10:23:13.308Z,7.18
2024-01-16T10:25:41.529Z,5.85
2024-01-16T10:28:15.523Z,7.75
2024-01-16T10:31:10.537Z,7.50
2024-01-16T10:33:46.439Z,6.35
2024-01-16T10:36:25.690Z,7.00
2024-01-16T10:38:59.075Z,6.30
2024-01-16T10:41:38.261Z,6.40
2024-01-16T10:44:14.358Z,6.20
2024-01-16T10:46:47.709Z,4.85
2024-01-16T10:49:19.360Z,5.82
2024-01-16T10:52:11.984Z,3.13
2024-01-16T10:54:49.090Z,3.47
2024-01-16T10:57:16.554Z,8.40
2024-01-16T11:00:14.570Z,5.07
2024-01-16T11:02:55.795Z,5.03
2024-01-16T11:08:43.363Z,3.17
2024-01-16T11:11:11.186Z,3.95
2024-01-16T11:13:42.523Z,4.57
2024-01-16T11:16:12.235Z,3.92
2024-01-16T11:18:50.220Z,4.53
2024-01-16T11:21:21.895Z,3.30
2024-01-16T11:23:54.185Z,2.55
2024-01-16T11:26:42.455Z,3.72
2024-01-16T11:29:44.008Z,10.05
2024-01-16T11:33:49.173Z,3.55
2024-01-16T11:49:49.216Z,3.05
2024-01-16T11:56:27.485Z,5.20
2024-01-16T11:59:35.971Z,2.90
2024-01-16T12:02:21.083Z,2.15
2024-01-16T12:05:09.552Z,3.35
2024-01-16T12:11:53.524Z,7.22
2024-01-16T12:14:21.164Z,10.02
2024-01-16T12:17:21.553Z,4.30
2024-01-16T12:23:19.388Z,2.75
2024-01-16T12:26:01.606Z,4.30
2024-01-16T12:28:45.901Z,4.45
2024-01-16T12:31:20.078Z,6.95
2024-01-16T12:33:58.371Z,2.67
2024-01-16T12:36:33.941Z,3.95
2024-01-16T12:39:01.377Z,4.03
2024-01-16T12:42:02.494Z,3.10
2024-01-16T12:44:37.718Z,6.10
2024-01-16T12:47:05.078Z,3.80
2024-01-16T12:49:32.298Z,3.58
2024-01-16T12:52:22.895Z,4.97
2024-01-16T12:54:55.794Z,5.10
2024-01-16T12:57:25.849Z,5.47
2024-01-16T12:59:58.709Z,6.53
2024-01-16T13:02:29.609Z,4.32
2024-01-16T13:05:21.180Z,5.70
2024-01-16T13:08:16.041Z,4.55
2024-01-16T13:10:53.484Z,2.85
2024-01-16T13:13:23.444Z,7.50
2024-01-16T13:15:52.687Z,6.07
2024-01-16T13:18:32.993Z,7.40
2024-01-16T13:21:08.945Z,9.02
2024-01-16T13:23:37.304Z,7.20
2024-01-16T13:26:07.255Z,4.40
2024-01-16T13:31:37.096Z,4.72
2024-01-16T13:34:10.126Z,3.63
2024-01-16T13:39:18.828Z,5.45
2024-01-16T13:41:56.771Z,4.68
2024-01-16T13:44:25.762Z,4.38
2024-01-16T13:47:07.290Z,4.13
2024-01-16T13:49:38.105Z,5.78
2024-01-16T13:52:27.337Z,5.97
2024-01-16T13:55:05.044Z,4.72
2024-01-16T13:57:39.556Z,6.65
2024-01-16T14:00:36.254Z,2.92
2024-01-16T14:05:49.286Z,4.05
2024-01-16T14:08:25.273Z,4.82
2024-01-16T14:10:53.058Z,4.97
2024-01-16T14:13:27.403Z,3.58
2024-01-16T14:16:07.224Z,4.13
2024-01-16T14:18:36.863Z,4.50
2024-01-16T14:21:08.604Z,5.10
2024-01-16T14:23:37.278Z,6.65
2024-01-16T14:26:15.692Z,4.45
2024-01-16T14:28:45.791Z,4.75
2024-01-16T14:31:15.503Z,4.63
2024-01-16T14:33:43.274Z,4.95
2024-01-16T14:36:20.929Z,4.10
2024-01-16T14:38:54.741Z,4.57
2024-01-16T14:41:30.586Z,4.28
2024-01-16T14:43:57.687Z,6.57
2024-01-16T14:46:28.190Z,8.05
2024-01-16T14:48:55.392Z,5.25
2024-01-16T14:51:26.067Z,5.60
2024-01-16T14:53:54.816Z,6.43
2024-01-16T14:56:26.403Z,5.55
2024-01-16T14:59:40.714Z,4.53
2024-01-16T15:02:16.380Z,7.25
2024-01-16T15:04:57.727Z,8.10
2024-01-16T15:07:28.313Z,5.68
2024-01-16T15:10:20.311Z,5.68
2024-01-16T15:12:52.099Z,4.38
2024-01-16T15:15:29.607Z,4.68
2024-01-16T15:17:59.095Z,5.68
2024-01-16T15:20:27.236Z,5.07
2024-01-16T15:22:55.849Z,4.72
2024-01-16T15:25:24.392Z,4.95
2024-01-16T15:27:56.978Z,5.50
2024-01-16T15:30:32.888Z,6.00
2024-01-16T15:33:07.847Z,5.93
2024-01-16T15:35:35.143Z,5.95
2024-01-16T15:38:04.075Z,5.88
2024-01-16T15:40:36.115Z,6.38
2024-01-16T15:43:12.641Z,5.78
2024-01-16T15:45:41.984Z,5.22
2024-01-16T15:48:22.221Z,6.97
2024-01-16T15:51:12.979Z,4.60
2024-01-16T15:53:46.005Z,6.68
2024-01-16T15:56:31.363Z,5.40
2024-01-16T15:59:02.748Z,6.20
2024-01-16T16:01:33.202Z,7.13
2024-01-16T16:04:02.039Z,6.63
2024-01-16T16:06:39.448Z,6.03
2024-01-16T16:09:09.650Z,5.38
2024-01-16T16:11:45.750Z,4.90
2024-01-16T16:14:21.996Z,5.72
2024-01-16T16:16:57.276Z,5.75
2024-01-16T16:20:00.515Z,6.60
2024-01-16T16:22:33.334Z,7.30
2024-01-16T16:25:27.904Z,5.38
2024-01-16T16:27:54.891Z,7.88
2024-01-16T16:30:26.636Z,9.57
2024-01-16T16:32:54.925Z,7.93
2024-01-16T16:35:23.398Z,9.13
2024-01-16T16:40:48.941Z,6.78
2024-01-16T16:46:18.262Z,7.15
2024-01-16T16:48:47.622Z,12.55
2024-01-16T16:51:28.025Z,8.27
2024-01-16T16:53:55.891Z,8.30
2024-01-16T16:56:27.333Z,7.50
2024-01-16T16:58:54.873Z,8.38
2024-01-16T17:01:48.915Z,5.85
2024-01-16T17:04:19.268Z,6.07
2024-01-16T17:06:53.081Z,5.65
2024-01-16T17:09:21.098Z,8.52
2024-01-16T17:11:48.418Z,6.28
2024-01-16T17:14:16.424Z,6.32
2024-01-16T17:16:43.634Z,8.30
2024-01-16T17:19:12.097Z,8.50
2024-01-16T17:21:41.905Z,8.02
2024-01-16T17:25:04.965Z,8.15
2024-01-16T17:27:58.636Z,7.28
2024-01-16T17:30:26.736Z,9.80
2024-01-16T17:32:56.481Z,12.98
2024-01-16T17:35:25.241Z,8.88
2024-01-16T17:37:52.128Z,17.52
2024-01-16T17:40:25.227Z,8.40
2024-01-16T17:42:54.964Z,8.60
2024-01-16T17:45:22.031Z,9.52
2024-01-16T17:47:49.002Z,9.05
2024-01-16T17:50:19.586Z,7.35
2024-01-16T17:52:46.824Z,9.82
2024-01-16T17:55:13.825Z,7.93
2024-01-16T17:57:46.573Z,13.02
2024-01-16T18:00:14.223Z,9.13
2024-01-16T18:02:43.230Z,6.72
2024-01-16T18:05:17.931Z,8.20
2024-01-16T18:07:45.438Z,8.07
2024-01-16T18:10:34.928Z,7.70
2024-01-16T18:13:02.008Z,7.07
2024-01-16T18:15:29.282Z,8.77
2024-01-16T18:18:03.119Z,8.27
2024-01-16T18:20:35.682Z,9.25
2024-01-16T18:23:04.558Z,10.73
2024-01-16T18:25:41.382Z,8.25
2024-01-16T18:28:08.903Z,6.60
2024-01-16T18:30:38.162Z,6.38
2024-01-16T18:33:06.246Z,10.20
2024-01-16T18:35:37.771Z,9.80
2024-01-16T18:38:05.653Z,7.95
2024-01-16T18:40:32.500Z,9.93
2024-01-16T18:43:01.039Z,10.18
2024-01-16T18:45:46.304Z,10.13
2024-01-16T18:48:16.157Z,13.23
2024-01-16T18:50:43.521Z,8.18
2024-01-16T18:53:13.726Z,5.63
2024-01-16T18:55:41.965Z,7.97
2024-01-16T18:58:12.121Z,8.20
2024-01-16T19:00:51.801Z,10.63
2024-01-16T19:03:31.200Z,8.18
2024-01-16T19:06:14.070Z,7.93
2024-01-16T19:08:44.687Z,7.93
2024-01-16T19:11:11.979Z,8.20
2024-01-16T19:13:45.601Z,7.75
2024-01-16T19:16:20.564Z,7.45
2024-01-16T19:18:47.785Z,10.23
2024-01-16T19:21:15.099Z,8.05
2024-01-16T19:23:42.290Z,7.80
2024-01-16T19:26:10.561Z,8.32
2024-01-16T19:28:41.890Z,8.35
2024-01-16T19:31:14.216Z,7.53
2024-01-16T19:33:45.967Z,11.63
2024-01-16T19:36:14.700Z,9.23
2024-01-16T19:38:41.591Z,7.13
2024-01-16T19:41:10.610Z,9.38
2024-01-16T19:43:37.634Z,8.68
2024-01-16T19:46:05.048Z,8.52
2024-01-16T19:48:36.061Z,7.40
2024-01-16T19:51:03.577Z,8.10
2024-01-16T19:53:34.640Z,10.00
2024-01-16T19:56:06.484Z,11.20
2024-01-16T19:58:38.651Z,10.93
2024-01-16T20:01:06.028Z,8.70
2024-01-16T20:03:37.179Z,10.05
2024-01-16T20:06:05.088Z,10.48
2024-01-16T20:08:32.112Z,10.45
2024-01-16T20:11:03.967Z,8.20
2024-01-16T20:13:31.080Z,11.30
2024-01-16T20:15:58.195Z,7.57
2024-01-16T20:18:25.467Z,10.75
2024-01-16T20:20:54.958Z,8.70
2024-01-16T20:23:21.891Z,9.15
2024-01-16T20:25:49.135Z,8.02
2024-01-16T20:28:16.284Z,7.65
2024-01-16T20:30:50.944Z,7.53
2024-01-16T20:33:18.538Z,11.35
2024-01-16T20:35:45.714Z,7.32
2024-01-16T20:38:13.296Z,9.23
2024-01-16T20:40:41.029Z,8.35
2024-01-16T20:43:10.026Z,9.68
2024-01-16T20:45:36.947Z,8.55
2024-01-16T20:48:05.923Z,11.05
2024-01-16T20:50:33.236Z,10.40
2024-01-16T20:53:01.763Z,11.55
2024-01-16T20:55:31.857Z,9.43
2024-01-16T20:58:00.793Z,10.63
2024-01-16T21:00:35.136Z,12.75
2024-01-16T21:03:08.498Z,10.52
2024-01-16T21:05:36.127Z,10.10
2024-01-16T21:08:04.365Z,8.98
2024-01-16T21:10:32.810Z,8.57
2024-01-16T21:12:59.847Z,11.35
2024-01-16T21:15:26.968Z,9.18
2024-01-16T21:17:54.139Z,7.32
2024-01-16T21:20:21.239Z,9.70
2024-01-16T21:22:55.669Z,9.65
2024-01-16T21:25:23.911Z,7.32
2024-01-16T21:27:55.872Z,8.30
2024-01-16T21:30:27.691Z,7.40
2024-01-16T21:32:57.968Z,7.53
2024-01-16T21:35:24.998Z,8.45
2024-01-16T21:37:52.003Z,7.00
2024-01-16T21:40:39.160Z,12.90
2024-01-16T21:43:11.232Z,8.45
2024-01-16T21:45:38.375Z,7.07
2024-01-16T21:48:06.979Z,8.05
2024-01-16T21:53:34.437Z,7.38
2024-01-16T21:56:05.059Z,9.63
2024-01-16T21:58:32.123Z,9.48
2024-01-16T22:00:59.074Z,10.23
2024-01-16T22:03:27.024Z,7.55
2024-01-16T22:05:58.112Z,8.23
2024-01-16T22:08:25.759Z,7.90
2024-01-16T22:10:53.147Z,8.55
2024-01-16T22:13:26.234Z,9.82
2024-01-16T22:15:53.025Z,11.80
2024-01-16T22:18:20.287Z,9.02
2024-01-16T22:20:47.595Z,12.98
2024-01-16T22:23:14.461Z,10.00
2024-01-16T22:26:01.371Z,9.88
2024-01-16T22:28:31.374Z,10.57
2024-01-16T22:30:59.948Z,11.73
2024-01-16T22:33:28.386Z,10.68
2024-01-16T22:35:55.907Z,10.73
2024-01-16T22:38:27.062Z,12.02
2024-01-16T22:40:56.544Z,10.68
2024-01-16T22:43:23.452Z,13.32
2024-01-16T22:45:51.454Z,10.10
2024-01-16T22:48:18.628Z,11.73
2024-01-16T22:50:50.744Z,11.18
2024-01-16T22:53:18.695Z,16.40
2024-01-16T22:56:05.766Z,10.95
2024-01-16T22:58:33.867Z,11.10
2024-01-16T23:01:02.312Z,11.82
2024-01-16T23:03:30.690Z,10.45
2024-01-16T23:05:58.207Z,11.20
2024-01-16T23:08:25.303Z,8.88
2024-01-16T23:10:55.221Z,12.63
2024-01-16T23:13:24.152Z,9.73
2024-01-16T23:15:51.128Z,9.77
2024-01-16T23:18:19.164Z,12.02
2024-01-16T23:20:47.653Z,9.52
2024-01-16T23:23:16.123Z,8.65
2024-01-16T23:25:46.725Z,10.52
2024-01-16T23:28:14.512Z,7.68
2024-01-16T23:30:41.424Z,11.13
2024-01-16T23:33:09.419Z,15.52
2024-01-16T23:35:37.199Z,8.88
2024-01-16T23:38:07.134Z,11.45
2024-01-16T23:40:34.107Z,10.40
2024-01-16T23:43:01.729Z,9.90
2024-01-16T23:45:33.366Z,12.38
2024-01-16T23:48:02.105Z,8.25
2024-01-16T23:50:30.248Z,10.75
2024-01-16T23:52:57.305Z,10.60
2024-01-16T23:55:24.381Z,10.35
2024-01-16T23:57:51.481Z,8.40
